createdAt,value
2023-02-06T00:02:59.986Z,100979.78
2023-02-06T00:08:07.214Z,100959.34
2023-02-06T00:13:12.247Z,100957.59
2023-02-06T00:18:19.867Z,100961.91
2023-02-06T00:23:24.801Z,100967.56
2023-02-06T00:28:29.838Z,100962.88
2023-02-06T00:33:38.653Z,100968.75
2023-02-06T00:38:43.933Z,100962.06
2023-02-06T00:43:49.070Z,100972.38
2023-02-06T00:48:56.890Z,100970.09
2023-02-06T00:54:01.800Z,100970.59
2023-02-06T00:59:06.919Z,100975.06
2023-02-06T01:04:14.406Z,100959.16
2023-02-06T01:09:19.391Z,100979.03
2023-02-06T01:14:24.712Z,100969.88
2023-02-06T01:19:32.377Z,100964.94
2023-02-06T01:24:37.387Z,100964.94
2023-02-06T01:29:42.630Z,100956.13
2023-02-06T01:34:50.214Z,100958.28
2023-02-06T01:39:56.945Z,100964.16
2023-02-06T01:45:37.744Z,100959.19
2023-02-06T01:50:49.594Z,100969.69
2023-02-06T01:55:57.268Z,100979.56
2023-02-06T02:01:03.798Z,100986.22
2023-02-06T02:06:14.910Z,100971.63
2023-02-06T02:11:23.322Z,100962.91
2023-02-06T02:16:35.847Z,100963.31
2023-02-06T02:22:27.613Z,100954.78
2023-02-06T02:28:08.237Z,100954.25
2023-02-06T02:33:29.021Z,100941.41
2023-02-06T02:38:48.105Z,100939.53
2023-02-06T02:43:58.945Z,100923.09
2023-02-06T02:49:07.617Z,100916.22
2023-02-06T02:54:16.166Z,100897.88
2023-02-06T02:59:26.905Z,100902.09
2023-02-06T03:04:37.880Z,100898.72
2023-02-06T03:09:56.167Z,100889.53
2023-02-06T03:15:06.756Z,100897.66
2023-02-06T03:20:14.570Z,100884.97
2023-02-06T03:25:31.260Z,100892.22
2023-02-06T03:30:38.997Z,100878.72
2023-02-06T03:35:45.232Z,100881.44
2023-02-06T03:40:54.362Z,100891.88
2023-02-06T03:46:03.006Z,100899.06
2023-02-06T03:51:14.878Z,100910.59
2023-02-06T03:56:30.981Z,100898.75
2023-02-06T04:01:36.192Z,100895.34
2023-02-06T04:06:41.113Z,100890.09
2023-02-06T04:11:49.203Z,100886.78
2023-02-06T04:16:54.513Z,100884.69
2023-02-06T04:21:59.909Z,100882.38
2023-02-06T04:27:07.528Z,100873.38
2023-02-06T04:32:12.708Z,100877.28
2023-02-06T04:37:17.679Z,100881.84
2023-02-06T04:42:26.172Z,100874.81
2023-02-06T04:47:31.136Z,100903.38
2023-02-06T04:52:36.334Z,100918.50
2023-02-06T04:57:44.068Z,100910.16
2023-02-06T05:02:49.243Z,100909.66
2023-02-06T05:07:54.103Z,100927.91
2023-02-06T05:13:01.532Z,100923.88
2023-02-06T05:18:07.649Z,100898.06
2023-02-06T05:23:12.922Z,100891.81
2023-02-06T05:28:21.387Z,100897.47
2023-02-06T05:33:26.732Z,100888.72
2023-02-06T05:38:33.479Z,100899.56
2023-02-06T05:43:41.032Z,100904.13
2023-02-06T05:48:45.922Z,100907.44
2023-02-06T05:53:51.024Z,100909.09
2023-02-06T05:58:58.635Z,100904.69
2023-02-06T06:04:03.583Z,100891.94
2023-02-06T06:09:08.748Z,100897.91
2023-02-06T06:14:16.673Z,100889.97
2023-02-06T06:19:21.804Z,100886.91
2023-02-06T06:24:28.097Z,100898.91
2023-02-06T06:29:42.080Z,100899.47
2023-02-06T06:34:48.574Z,100887.28
2023-02-06T06:39:58.154Z,100888.41
2023-02-06T06:45:05.765Z,100893.16
2023-02-06T06:50:11.400Z,100893.91
2023-02-06T06:55:17.447Z,100891.66
2023-02-06T07:00:25.158Z,100885.16
2023-02-06T07:05:30.228Z,100889.13
2023-02-06T07:10:35.137Z,100894.63
2023-02-06T07:15:42.683Z,100880.97
2023-02-06T07:20:48.342Z,100892.69
2023-02-06T07:25:54.073Z,100898.38
2023-02-06T07:31:03.240Z,100887.28
2023-02-06T07:36:12.228Z,100864.91
2023-02-06T07:41:18.459Z,100870.47
2023-02-06T07:46:29.345Z,100873.22
2023-02-06T07:51:34.464Z,100879.94
2023-02-06T07:56:40.196Z,100888.41
2023-02-06T08:01:48.079Z,100881.13
2023-02-06T08:06:54.009Z,100885.03
2023-02-06T08:11:58.942Z,100889.88
2023-02-06T08:17:07.745Z,100891.84
2023-02-06T08:22:12.657Z,100904.16
2023-02-06T08:27:18.005Z,100900.25
2023-02-06T08:32:28.721Z,100892.28
2023-02-06T08:37:35.109Z,100881.94
2023-02-06T08:42:40.228Z,100881.75
2023-02-06T08:47:48.867Z,100874.13
2023-02-06T08:52:53.741Z,100867.06
2023-02-06T08:58:00.475Z,100854.66
2023-02-06T09:03:08.381Z,100860.00
2023-02-06T09:08:13.481Z,100848.47
2023-02-06T09:13:18.460Z,100846.69
2023-02-06T09:18:26.192Z,100854.31
2023-02-06T09:23:31.293Z,100864.44
2023-02-06T09:28:36.807Z,100855.25
2023-02-06T09:33:44.348Z,100856.94
2023-02-06T09:38:56.138Z,100857.03
2023-02-06T09:44:04.482Z,100862.69
2023-02-06T09:49:18.176Z,100856.91
2023-02-06T09:54:34.195Z,100849.28
2023-02-06T09:59:48.393Z,100863.97
2023-02-06T10:05:01.525Z,100856.56
2023-02-06T10:10:14.296Z,100853.84
2023-02-06T10:15:24.471Z,100845.44
2023-02-06T10:20:36.254Z,100850.78
2023-02-06T10:25:53.688Z,100846.06
2023-02-06T10:31:11.441Z,100837.19
2023-02-06T10:36:37.678Z,100848.53
2023-02-06T10:41:51.518Z,100851.34
2023-02-06T10:46:57.984Z,100865.28
2023-02-06T10:52:17.410Z,100869.31
2023-02-06T10:57:25.100Z,100870.38
2023-02-06T11:02:58.173Z,100864.34
2023-02-06T11:08:38.507Z,100855.94
2023-02-06T11:13:46.634Z,100848.63
2023-02-06T11:18:54.434Z,100816.47
2023-02-06T11:24:16.712Z,100806.53
2023-02-06T11:29:24.408Z,100810.25
2023-02-06T11:34:37.812Z,100822.00
2023-02-06T11:39:48.424Z,100821.84
2023-02-06T11:45:04.150Z,100818.09
2023-02-06T11:50:29.211Z,100809.28
2023-02-06T11:55:38.310Z,100814.69
2023-02-06T12:00:46.266Z,100826.16
2023-02-06T12:05:51.688Z,100821.16
2023-02-06T12:11:07.745Z,100814.47
2023-02-06T12:16:19.150Z,100804.72
2023-02-06T12:21:34.662Z,100812.97
2023-02-06T12:26:43.855Z,100815.03
2023-02-06T12:31:56.239Z,100810.84
2023-02-06T12:37:14.149Z,100810.69
2023-02-06T12:42:45.627Z,100791.13
2023-02-06T12:47:56.550Z,100800.34
2023-02-06T12:53:07.858Z,100800.34
2023-02-06T12:58:54.710Z,100802.13
2023-02-06T13:04:01.779Z,100784.06
2023-02-06T13:09:09.595Z,100778.41
2023-02-06T13:14:26.293Z,100773.78
2023-02-06T13:19:56.515Z,100781.19
2023-02-06T13:25:01.898Z,100781.81
2023-02-06T13:30:41.746Z,100782.50
2023-02-06T13:36:11.566Z,100791.75
2023-02-06T13:41:31.560Z,100798.34
2023-02-06T13:52:36.593Z,100798.63
2023-02-06T13:58:20.198Z,100811.09
2023-02-06T14:03:43.146Z,100838.38
2023-02-06T14:09:03.189Z,100834.66
2023-02-06T14:14:28.482Z,100823.31
2023-02-06T14:19:41.735Z,100833.09
2023-02-06T14:25:13.650Z,100830.44
2023-02-06T14:30:30.214Z,100827.19
2023-02-06T14:35:55.596Z,100834.00
2023-02-06T14:41:04.225Z,100837.84
2023-02-06T14:46:16.655Z,100853.91
2023-02-06T14:51:26.826Z,100852.44
2023-02-06T14:56:37.167Z,100859.00
2023-02-06T15:01:42.933Z,100865.72
2023-02-06T15:06:54.597Z,100869.25
2023-02-06T15:12:04.734Z,100882.44
2023-02-06T15:17:09.682Z,100901.81
2023-02-06T15:22:17.912Z,100911.47
2023-02-06T15:27:30.936Z,100922.63
2023-02-06T15:32:37.956Z,100932.03
2023-02-06T15:37:43.626Z,100937.19
2023-02-06T15:42:51.787Z,100938.63
2023-02-06T15:47:58.371Z,100943.41
2023-02-06T15:53:03.315Z,100960.19
2023-02-06T15:58:17.269Z,100979.38
2023-02-06T16:03:25.723Z,100974.88
2023-02-06T16:08:34.872Z,100996.47
2023-02-06T16:13:42.875Z,100985.78
2023-02-06T16:18:51.965Z,101002.31
2023-02-06T16:24:07.765Z,100995.63
2023-02-06T16:29:29.688Z,100991.56
2023-02-06T16:34:39.037Z,100984.84
2023-02-06T16:39:45.896Z,100986.28
2023-02-06T16:44:55.626Z,100979.94
2023-02-06T16:50:00.535Z,100985.69
2023-02-06T16:55:05.625Z,100991.22
2023-02-06T17:00:20.651Z,101011.50
2023-02-06T17:05:31.704Z,101013.69
2023-02-06T17:10:39.729Z,101011.50
2023-02-06T17:15:49.334Z,101031.06
2023-02-06T17:20:56.364Z,101034.75
2023-02-06T17:26:02.385Z,101032.84
2023-02-06T17:31:10.450Z,101030.19
2023-02-06T17:36:21.977Z,101043.63
2023-02-06T17:41:28.032Z,101050.84
2023-02-06T17:46:35.676Z,101048.47
2023-02-06T17:51:42.300Z,101040.94
2023-02-06T17:56:47.174Z,101043.69
2023-02-06T18:01:54.822Z,101049.44
2023-02-06T18:07:00.175Z,101053.03
2023-02-06T18:12:05.453Z,101036.50
2023-02-06T18:17:13.835Z,101053.97
2023-02-06T18:22:21.912Z,101062.47
2023-02-06T18:27:27.151Z,101060.69
2023-02-06T18:32:37.117Z,101059.22
2023-02-06T18:37:43.322Z,101066.56
2023-02-06T18:42:54.769Z,101079.81
2023-02-06T18:48:02.381Z,101074.91
2023-02-06T18:53:07.897Z,101070.19
2023-02-06T18:58:15.824Z,101065.28
2023-02-06T19:03:23.362Z,101061.22
2023-02-06T19:08:28.336Z,101047.34
2023-02-06T19:13:34.407Z,101042.81
2023-02-06T19:18:43.107Z,101047.50
2023-02-06T19:23:50.458Z,101059.28
2023-02-06T19:28:56.058Z,101068.25
2023-02-06T19:34:06.311Z,101081.66
2023-02-06T19:39:14.125Z,101079.22
2023-02-06T19:44:19.142Z,101105.28
2023-02-06T19:49:28.252Z,101109.47
2023-02-06T19:54:33.298Z,101120.25
2023-02-06T19:59:38.646Z,101126.59
2023-02-06T20:04:47.365Z,101121.34
2023-02-06T20:09:52.695Z,101147.97
2023-02-06T20:14:58.137Z,101162.28
2023-02-06T20:20:08.012Z,101167.03
2023-02-06T20:25:13.691Z,101173.38
2023-02-06T20:30:23.338Z,101182.16
2023-02-06T20:35:32.394Z,101189.94
2023-02-06T20:40:39.969Z,101195.38
2023-02-06T20:45:46.372Z,101174.38
2023-02-06T20:50:59.621Z,101188.88
2023-02-06T20:56:04.543Z,101179.06
2023-02-06T21:01:15.770Z,101170.78
2023-02-06T21:06:23.791Z,101161.72
2023-02-06T21:11:30.524Z,101165.03
2023-02-06T21:16:37.699Z,101168.84
2023-02-06T21:21:46.459Z,101173.97
2023-02-06T21:26:52.220Z,101173.66
2023-02-06T21:32:12.264Z,101182.22
2023-02-06T21:37:22.631Z,101174.41
2023-02-06T21:42:27.631Z,101168.56
2023-02-06T21:47:34.881Z,101175.78
2023-02-06T21:52:42.404Z,101185.34
2023-02-06T21:57:47.413Z,101187.91
2023-02-06T22:02:52.321Z,101185.16
2023-02-06T22:07:59.902Z,101176.81
2023-02-06T22:13:04.825Z,101178.06
2023-02-06T22:18:10.560Z,101189.50
2023-02-06T22:23:20.315Z,101205.16
2023-02-06T22:28:25.188Z,101185.28
2023-02-06T22:33:30.143Z,101178.41
2023-02-06T22:38:38.621Z,101179.69
2023-02-06T22:43:43.908Z,101172.78
2023-02-06T22:48:48.950Z,101169.94
2023-02-06T22:53:56.723Z,101178.06
2023-02-06T22:59:03.748Z,101188.72
2023-02-06T23:04:10.664Z,101189.06
2023-02-06T23:09:20.590Z,101169.13
2023-02-06T23:14:26.538Z,101176.28
2023-02-06T23:19:31.921Z,101192.22
2023-02-06T23:24:39.788Z,101178.31
2023-02-06T23:29:44.689Z,101193.56
2023-02-06T23:34:49.692Z,101188.50
2023-02-06T23:39:57.276Z,101187.97
2023-02-06T23:45:02.309Z,101200.44
2023-02-06T23:50:08.225Z,101202.75
2023-02-06T23:55:15.843Z,101208.63
